Le Puy-Loudes Airport

Airport
ICAO code: 
LFHP
IATA Code: 
LPY
Summary
ICAO Region: 
EUR
Territory: 
Location: 
, Auvergne
Serving: 
Le Puy
Elevation: 
2731 ft
Coordinates: 
Aerial View: 
45° 4' 50.48" N, 3° 45' 46.4" E
Metar
Observation
LFHP 291830Z AUTO 33008KT 310V010 9999 BKN017 OVC023 M02/M04 Q1016
Station
Le Puy
Date/Time
2021-11-29 18:30:00
Wind direction
330°
Wind speed
08 kts
Lowest cloud amount
broken clouds
Temperature
-2°C
Dew point
-4°C
Humidity
86%
QNH
1016 hPa
Weather condition
n/a

Runways

Designator Length Width Surface Rops
15R/33L 767 58 GRS No/No
15/33 1445 30 ASP No/No
Airport map: 
Aerial View: 

SKYbrary Partners:

Safety knowledge contributed by: